Wednesday, October 01, 2014
16:23 UTC
  |  Log In   |  Register Free
Airport Search:

Clayton Municipal Airport
(11A)

Clayton Municipal Airport Diagram
No Airport Diagram Available

FAA data valid effective September 18, 2014 - November 13, 2014 (unless otherwise noted).

 
 
 
 
 
 
 
 
 
 
 
 
 
 

Current Aviation Weather for Clayton Municipal Airport (11A)

METAR data is unavailable for 11A. The nearest METAR location is at KEUF (18.6 nm NE from 11A).

The most recent METAR observation for KEUF was updated at: 1612
METAR Summary (Translated METAR)
KEUF
011558Z AUTO 00000KT 10SM FEW017 SCT028 SCT034 26/19 A3000 RMK AO2 SLP155 T02560189 $
(18.6 nm NE from 11A)
KTOI
011553Z AUTO 00000KT 10SM OVC039 23/19 A3002 RMK AO2 SLP161 T02330194
(26.9 nm SW from 11A)
TAF Summary (Translated TAF)
KTOI
(45.3 nm SW from KEUF)
011255Z 0113/0212 00000KT 3SM BR OVC002 FM011400 00000KT 6SM BR SCT002 FM011500 12003KT P6SM SKC FM020600 00000KT 4SM BR SKC
  Airport Weather Conditions for 11A

Current weather conditions are
not available for 11A


The nearest NOAA weather station
is at EUF, (18.6 nm NE from 11A)
  
 Current Weather at EUF
77° F
Overcast
North winds at 0.0 mph
EUF NOAA Radar

Pressure: 30.00 in
Humidity: 74%
Wind: Calm
Dew Point: 68.0°F
Visibility: 10.00 mi


Airport Weather Forecast for 11A

Translated METAR and TAF for KEUF
Translated METAR for KEUF (1617 UTC 01 October 2014)
found at http://aviationweather.gov/adds/metars/
 
METAR text: KEUF 011558Z AUTO 00000KT 10SM FEW017 SCT028 SCT034 26/19 A3000 RMK AO2 SLP155 T02560189 $
Conditions at: KEUF (EUFAULA , AL, US) observed 1558 UTC 01 October 2014
Temperature: 25.6°C (78°F)
Dewpoint: 18.9°C (66°F) [RH = 67%]
Pressure (altimeter): 30.00 inches Hg (1016.0 mb)
[Sea-level pressure: 1015.5 mb]
Winds: calm
Visibility: 10 or more miles (16+ km)
Ceiling: at least 12,000 feet AGL
Clouds: few clouds at 1700 feet AGL
scattered clouds at 2800 feet AGL
scattered clouds at 3400 feet AGL
Weather:
SOME DATA ABOVE MAY BE INACCURATE!!!
"$" is an indication the sensor requires maintenance
Translated TAF for KEUF

There is no translated TAF available for this airport

Find All Airport Services Find A Hotel Find A Rental Car Find A Golf Course Find A Restaurant $100 Hamburger



FBO's on the Field
FBO Company Facility Photos Services Transportation Aviation Fuel Prices: Prices include tax
Catering Weather Repair Courtesy Rental Type 100LL JetA JetA+ MOGAS 8087
 
Add another FBO Facility Photos Catering Weather Repair Courtesy Rental Type 100LL JetA JetA+ MOGAS 8087
Services Transportation Aviation Fuel Prices: Prices include tax
There are no FBO's currently reporting fuel at 11A. List your FBO now


model-print
model-print
model-print
model-print